createdAt,value
2023-05-07T00:00:54.456Z,100990.37
2023-05-07T00:03:04.018Z,100988.79
2023-05-07T00:05:14.353Z,100987.86
2023-05-07T00:07:27.243Z,100987.15
2023-05-07T00:09:36.850Z,100989.85
2023-05-07T00:11:56.109Z,100989.31
2023-05-07T00:14:05.887Z,100987.25
2023-05-07T00:16:22.900Z,100991.60
2023-05-07T00:18:32.328Z,100991.92
2023-05-07T00:21:02.246Z,100994.09
2023-05-07T00:23:11.989Z,100993.37
2023-05-07T00:25:21.917Z,100992.35
2023-05-07T00:27:31.240Z,100992.16
2023-05-07T00:29:40.505Z,100992.12
2023-05-07T00:31:51.711Z,100993.94
2023-05-07T00:34:00.982Z,101000.05
2023-05-07T00:36:11.448Z,101004.33
2023-05-07T00:38:20.716Z,101006.70
2023-05-07T00:40:30.224Z,101006.06
2023-05-07T00:42:43.143Z,101011.84
2023-05-07T00:44:53.299Z,101010.02
2023-05-07T00:47:04.802Z,101011.77
2023-05-07T00:49:17.514Z,101013.73
2023-05-07T00:51:29.277Z,101016.17
2023-05-07T00:53:38.947Z,101017.67
2023-05-07T00:55:48.506Z,101018.45
2023-05-07T00:57:58.270Z,101016.73
2023-05-07T01:00:27.794Z,101019.16
2023-05-07T01:02:37.736Z,101020.18
2023-05-07T01:04:50.516Z,101014.51
2023-05-07T01:07:02.233Z,101013.01
2023-05-07T01:09:10.566Z,101014.11
2023-05-07T01:11:20.765Z,101012.14
2023-05-07T01:13:30.516Z,101011.83
2023-05-07T01:15:42.128Z,101010.33
2023-05-07T01:17:51.903Z,101007.73
2023-05-07T01:20:08.413Z,101005.98
2023-05-07T01:22:22.899Z,101006.55
2023-05-07T01:24:42.204Z,101005.18
2023-05-07T01:26:51.496Z,101011.10
2023-05-07T01:29:04.488Z,101012.84
2023-05-07T01:31:25.177Z,101012.84
2023-05-07T01:33:37.760Z,101013.79
2023-05-07T01:35:50.632Z,101020.48
2023-05-07T01:38:00.145Z,101024.84
2023-05-07T01:40:14.349Z,101025.86
2023-05-07T01:42:35.194Z,101037.28
2023-05-07T01:44:48.627Z,101036.95
2023-05-07T01:46:59.564Z,101037.23
2023-05-07T01:49:09.075Z,101036.59
2023-05-07T01:51:18.940Z,101036.49
2023-05-07T01:53:29.663Z,101038.98
2023-05-07T01:55:39.252Z,101037.83
2023-05-07T01:57:48.475Z,101035.72
2023-05-07T01:59:57.684Z,101037.41
2023-05-07T02:02:18.149Z,101046.61
2023-05-07T02:04:28.300Z,101047.13
2023-05-07T02:06:41.356Z,101048.90
2023-05-07T02:08:52.392Z,101053.20
2023-05-07T02:11:01.956Z,101058.63
2023-05-07T02:13:12.314Z,101055.88
2023-05-07T02:15:25.427Z,101057.46
2023-05-07T02:17:35.589Z,101052.42
2023-05-07T02:19:48.158Z,101047.08
2023-05-07T02:21:57.486Z,101059.04
2023-05-07T02:24:13.060Z,101065.40
2023-05-07T02:26:24.019Z,101075.80
2023-05-07T02:28:33.319Z,101076.50
2023-05-07T02:30:49.284Z,101077.37
2023-05-07T02:32:58.947Z,101072.20
2023-05-07T02:35:10.063Z,101075.58
2023-05-07T02:37:39.742Z,101078.17
2023-05-07T02:39:49.183Z,101088.88
2023-05-07T02:41:58.359Z,101105.02
2023-05-07T02:44:08.072Z,101107.85
2023-05-07T02:46:18.457Z,101108.07
2023-05-07T02:48:31.996Z,101115.73
2023-05-07T02:50:41.418Z,101112.23
2023-05-07T02:53:00.975Z,101113.88
2023-05-07T02:55:22.283Z,101111.47
2023-05-07T02:57:31.932Z,101112.46
2023-05-07T02:59:41.448Z,101115.34
2023-05-07T03:01:50.756Z,101115.55
2023-05-07T03:04:00.023Z,101116.15
2023-05-07T03:06:10.228Z,101118.39
2023-05-07T03:08:19.946Z,101122.15
2023-05-07T03:10:32.555Z,101127.16
2023-05-07T03:12:42.088Z,101127.36
2023-05-07T03:14:51.713Z,101128.67
2023-05-07T03:17:01.015Z,101127.86
2023-05-07T03:19:14.133Z,101130.77
2023-05-07T03:21:23.574Z,101132.86
2023-05-07T03:23:35.631Z,101139.77
2023-05-07T03:25:45.086Z,101143.45
2023-05-07T03:27:54.586Z,101145.08
2023-05-07T03:30:05.638Z,101148.99
2023-05-07T03:32:15.729Z,101149.84
2023-05-07T03:34:25.244Z,101155.56
2023-05-07T03:36:38.359Z,101157.65
2023-05-07T03:38:51.333Z,101156.38
2023-05-07T03:41:03.500Z,101161.09
2023-05-07T03:43:13.432Z,101161.36
2023-05-07T03:45:27.918Z,101163.54
2023-05-07T03:47:44.421Z,101162.18
2023-05-07T03:49:56.262Z,101167.52
2023-05-07T03:52:06.820Z,101170.70
2023-05-07T03:54:16.779Z,101170.67
2023-05-07T03:56:29.700Z,101178.77
2023-05-07T03:58:42.569Z,101182.90
2023-05-07T04:00:55.167Z,101187.89
2023-05-07T04:03:07.315Z,101191.27
2023-05-07T04:05:17.532Z,101188.11
2023-05-07T04:07:28.188Z,101187.73
2023-05-07T04:09:37.683Z,101190.42
2023-05-07T04:11:46.933Z,101193.91
2023-05-07T04:13:59.094Z,101196.31
2023-05-07T04:16:19.748Z,101194.41
2023-05-07T04:18:29.309Z,101198.27
2023-05-07T04:20:42.813Z,101198.85
2023-05-07T04:22:53.504Z,101199.85
2023-05-07T04:25:02.866Z,101203.04
2023-05-07T04:27:13.650Z,101210.27
2023-05-07T04:29:26.974Z,101210.17
2023-05-07T04:31:36.796Z,101211.83
2023-05-07T04:33:49.659Z,101208.96
2023-05-07T04:35:59.076Z,101215.56
2023-05-07T04:38:08.599Z,101221.21
2023-05-07T04:40:18.974Z,101217.93
2023-05-07T04:42:28.552Z,101220.21
2023-05-07T04:44:38.603Z,101223.76
2023-05-07T04:46:51.161Z,101221.45
2023-05-07T04:49:00.737Z,101223.05
2023-05-07T04:51:11.048Z,101225.46
2023-05-07T04:53:20.720Z,101224.81
2023-05-07T04:55:30.611Z,101228.59
2023-05-07T04:57:40.990Z,101227.33
2023-05-07T04:59:50.597Z,101233.42
2023-05-07T05:02:00.013Z,101236.55
2023-05-07T05:04:10.097Z,101243.06
2023-05-07T05:06:19.544Z,101247.38
2023-05-07T05:08:29.056Z,101249.81
2023-05-07T05:10:43.035Z,101254.27
2023-05-07T05:12:53.151Z,101257.48
2023-05-07T05:15:23.212Z,101256.08
2023-05-07T05:17:32.452Z,101251.83
2023-05-07T05:19:45.260Z,101247.23
2023-05-07T05:21:54.912Z,101245.79
2023-05-07T05:24:12.752Z,101246.35
2023-05-07T05:26:32.273Z,101242.48
2023-05-07T05:28:41.784Z,101241.59
2023-05-07T05:30:51.178Z,101244.58
2023-05-07T05:33:11.088Z,101248.48
2023-05-07T05:35:20.704Z,101244.91
2023-05-07T05:37:31.577Z,101243.01
2023-05-07T05:39:41.750Z,101243.54
2023-05-07T05:41:51.292Z,101245.41
2023-05-07T05:44:00.704Z,101250.89
2023-05-07T05:46:21.372Z,101253.98
2023-05-07T05:48:33.462Z,101255.95
2023-05-07T05:50:44.670Z,101261.82
2023-05-07T05:53:00.478Z,101264.52
2023-05-07T05:55:29.829Z,101267.63
2023-05-07T05:57:39.456Z,101265.92
2023-05-07T05:59:49.167Z,101265.55
2023-05-07T06:01:58.479Z,101266.46
2023-05-07T06:04:08.339Z,101268.00
2023-05-07T06:06:17.986Z,101269.05
2023-05-07T06:08:27.433Z,101272.70
2023-05-07T06:10:38.299Z,101272.80
2023-05-07T06:12:48.481Z,101277.58
2023-05-07T06:15:00.980Z,101281.38
2023-05-07T06:17:10.865Z,101285.84
2023-05-07T06:19:24.480Z,101285.23
2023-05-07T06:21:34.417Z,101284.72
2023-05-07T06:23:44.305Z,101283.33
2023-05-07T06:25:54.833Z,101284.55
2023-05-07T06:28:07.010Z,101286.95
2023-05-07T06:30:18.861Z,101287.81
2023-05-07T06:32:28.828Z,101292.13
2023-05-07T06:34:38.341Z,101290.58
2023-05-07T06:36:47.743Z,101296.19
2023-05-07T06:39:14.929Z,101295.67
2023-05-07T06:41:34.469Z,101300.61
2023-05-07T06:43:49.719Z,101304.85
2023-05-07T06:46:28.031Z,101307.40
2023-05-07T06:48:37.433Z,101311.14
2023-05-07T06:51:07.040Z,101314.90
2023-05-07T06:53:16.423Z,101316.44
2023-05-07T06:55:26.323Z,101317.13
2023-05-07T06:57:35.693Z,101319.34
2023-05-07T06:59:45.345Z,101320.52
2023-05-07T07:02:04.818Z,101323.97
2023-05-07T07:04:18.261Z,101329.09
2023-05-07T07:06:33.211Z,101328.38
2023-05-07T07:08:41.264Z,101326.66
2023-05-07T07:10:50.605Z,101328.48
2023-05-07T07:13:03.195Z,101322.98
2023-05-07T07:15:16.250Z,101326.08
2023-05-07T07:17:26.175Z,101331.53
2023-05-07T07:19:37.401Z,101330.02
2023-05-07T07:22:06.575Z,101334.45
2023-05-07T07:24:22.598Z,101332.77
2023-05-07T07:26:35.851Z,101336.96
2023-05-07T07:28:56.624Z,101337.23
2023-05-07T07:31:17.779Z,101338.86
2023-05-07T07:33:27.710Z,101335.38
2023-05-07T07:35:37.045Z,101338.41
2023-05-07T07:37:47.612Z,101341.43
2023-05-07T07:39:57.766Z,101345.27
2023-05-07T07:42:07.970Z,101354.39
2023-05-07T07:44:17.390Z,101357.75
2023-05-07T07:46:30.886Z,101355.55
2023-05-07T07:48:41.322Z,101353.21
2023-05-07T07:50:53.571Z,101349.16
2023-05-07T07:53:12.877Z,101357.92
2023-05-07T07:55:25.669Z,101357.71
2023-05-07T07:57:35.797Z,101359.85
2023-05-07T07:59:45.651Z,101364.09
2023-05-07T08:01:58.249Z,101367.79
2023-05-07T08:04:09.442Z,101367.68
2023-05-07T08:06:19.219Z,101370.05
2023-05-07T08:08:29.110Z,101369.48
2023-05-07T08:10:40.528Z,101368.05
2023-05-07T08:12:58.557Z,101366.11
2023-05-07T08:15:27.951Z,101364.08
2023-05-07T08:17:37.730Z,101366.35
2023-05-07T08:19:50.929Z,101365.32
2023-05-07T08:22:00.302Z,101369.69
2023-05-07T08:24:10.391Z,101371.52
2023-05-07T08:26:22.914Z,101374.38
2023-05-07T08:28:42.874Z,101378.11
2023-05-07T08:30:52.370Z,101379.46
2023-05-07T08:33:05.031Z,101379.13
2023-05-07T08:35:15.145Z,101379.64
2023-05-07T08:37:24.868Z,101378.24
2023-05-07T08:39:34.231Z,101377.25
2023-05-07T08:41:45.492Z,101378.28
2023-05-07T08:43:58.166Z,101374.84
2023-05-07T08:46:10.217Z,101377.34
2023-05-07T08:48:32.238Z,101380.56
2023-05-07T08:50:50.593Z,101381.25
2023-05-07T08:53:01.458Z,101384.77
2023-05-07T08:55:15.811Z,101383.46
2023-05-07T08:57:25.994Z,101391.06
2023-05-07T08:59:38.172Z,101389.20
2023-05-07T09:01:48.045Z,101389.98
2023-05-07T09:03:58.019Z,101388.95
2023-05-07T09:06:18.206Z,101388.46
2023-05-07T09:08:29.746Z,101384.59
2023-05-07T09:10:41.999Z,101385.53
2023-05-07T09:12:53.538Z,101388.11
2023-05-07T09:15:04.198Z,101388.59
2023-05-07T09:17:14.101Z,101392.79
2023-05-07T09:19:32.969Z,101390.14
2023-05-07T09:21:43.915Z,101388.25
2023-05-07T09:23:57.957Z,101389.75
2023-05-07T09:26:14.410Z,101384.96
2023-05-07T09:28:35.517Z,101385.30
2023-05-07T09:30:45.688Z,101383.30
2023-05-07T09:32:56.264Z,101382.55
2023-05-07T09:35:06.649Z,101386.55
2023-05-07T09:37:19.022Z,101383.41
2023-05-07T09:39:28.850Z,101382.83
2023-05-07T09:41:45.960Z,101381.08
2023-05-07T09:44:04.504Z,101383.33
2023-05-07T09:46:21.682Z,101378.63
2023-05-07T09:48:34.954Z,101376.19
2023-05-07T09:50:51.217Z,101377.86
2023-05-07T09:53:02.603Z,101379.09
2023-05-07T09:55:14.371Z,101387.73
2023-05-07T09:57:26.628Z,101384.16
2023-05-07T09:59:40.216Z,101388.38
2023-05-07T10:02:12.538Z,101377.30
2023-05-07T10:04:28.420Z,101391.30
2023-05-07T10:06:37.825Z,101393.33
2023-05-07T10:08:48.132Z,101394.15
2023-05-07T10:10:57.348Z,101396.73
2023-05-07T10:13:12.062Z,101394.99
2023-05-07T10:15:25.948Z,101396.21
2023-05-07T10:17:38.126Z,101394.75
2023-05-07T10:19:49.352Z,101395.08
2023-05-07T10:22:04.677Z,101396.88
2023-05-07T10:24:22.228Z,101395.59
2023-05-07T10:26:33.789Z,101392.68
2023-05-07T10:28:46.270Z,101392.88
2023-05-07T10:31:07.995Z,101390.56
2023-05-07T10:33:27.274Z,101393.48
2023-05-07T10:35:41.937Z,101396.64
2023-05-07T10:37:52.112Z,101395.59
2023-05-07T10:40:01.762Z,101398.98
2023-05-07T10:42:15.985Z,101396.81
2023-05-07T10:44:33.030Z,101395.08
2023-05-07T10:47:06.531Z,101389.84
2023-05-07T10:49:16.550Z,101392.83
2023-05-07T10:51:48.298Z,101400.13
2023-05-07T10:54:28.063Z,101402.61
2023-05-07T10:56:44.357Z,101399.08
2023-05-07T10:59:46.582Z,101400.95
2023-05-07T11:02:01.022Z,101400.33
2023-05-07T11:04:25.876Z,101403.38
2023-05-07T11:07:06.744Z,101400.15
2023-05-07T11:09:20.334Z,101398.13
2023-05-07T11:11:52.672Z,101404.54
2023-05-07T11:14:10.539Z,101398.88
2023-05-07T11:16:38.230Z,101402.06
2023-05-07T11:19:13.503Z,101401.07
2023-05-07T11:21:39.748Z,101400.30
2023-05-07T11:24:13.801Z,101398.52
2023-05-07T11:26:46.683Z,101395.30
2023-05-07T11:28:57.267Z,101398.58
2023-05-07T11:31:07.983Z,101396.88
2023-05-07T11:33:22.063Z,101394.33
2023-05-07T11:35:35.591Z,101395.54
2023-05-07T11:37:47.807Z,101394.69
2023-05-07T11:40:07.960Z,101392.98
2023-05-07T11:42:30.960Z,101394.27
2023-05-07T11:44:50.863Z,101392.30
2023-05-07T11:47:01.294Z,101390.65
2023-05-07T11:49:11.508Z,101391.91
2023-05-07T11:51:23.877Z,101386.90
2023-05-07T11:53:39.682Z,101382.68
2023-05-07T11:55:48.920Z,101386.75
2023-05-07T11:57:58.183Z,101387.30
2023-05-07T12:00:09.738Z,101382.63
2023-05-07T12:02:26.496Z,101384.52
2023-05-07T12:04:36.458Z,101383.38
2023-05-07T12:06:46.181Z,101384.22
2023-05-07T12:08:56.057Z,101383.13
2023-05-07T12:11:05.086Z,101381.61
2023-05-07T12:13:21.063Z,101384.48
2023-05-07T12:15:30.390Z,101385.36
2023-05-07T12:17:39.890Z,101384.04
2023-05-07T12:19:49.806Z,101383.90
2023-05-07T12:21:59.790Z,101386.45
2023-05-07T12:24:10.779Z,101386.24
2023-05-07T12:26:22.326Z,101386.29
2023-05-07T12:28:33.291Z,101385.55
2023-05-07T12:30:44.758Z,101384.53
2023-05-07T12:32:57.340Z,101384.31
2023-05-07T12:35:08.587Z,101380.47
2023-05-07T12:37:18.204Z,101382.23
2023-05-07T12:39:27.620Z,101380.67
2023-05-07T12:41:55.073Z,101380.89
2023-05-07T12:44:06.956Z,101379.45
2023-05-07T12:46:18.512Z,101379.48
2023-05-07T12:48:28.340Z,101381.52
2023-05-07T12:50:37.984Z,101384.84
2023-05-07T12:52:48.514Z,101383.06
2023-05-07T12:54:57.962Z,101382.42
2023-05-07T12:57:10.283Z,101378.41
2023-05-07T12:59:19.304Z,101378.21
2023-05-07T13:01:34.003Z,101380.11
2023-05-07T13:03:43.525Z,101375.86
2023-05-07T13:05:53.022Z,101378.14
2023-05-07T13:08:02.596Z,101382.86
2023-05-07T13:10:13.499Z,101382.61
2023-05-07T13:12:23.105Z,101384.55
2023-05-07T13:14:32.394Z,101383.42
2023-05-07T13:16:42.321Z,101381.45
2023-05-07T13:18:51.841Z,101383.56
2023-05-07T13:21:01.624Z,101389.65
2023-05-07T13:23:10.952Z,101387.83
2023-05-07T13:25:20.196Z,101388.31
2023-05-07T13:27:29.426Z,101388.79
2023-05-07T13:29:38.531Z,101392.75
2023-05-07T13:31:48.448Z,101393.80
2023-05-07T13:33:59.008Z,101393.13
2023-05-07T13:36:09.108Z,101390.96
2023-05-07T13:38:19.224Z,101391.53
2023-05-07T13:40:28.970Z,101391.73
2023-05-07T13:42:38.032Z,101397.05
2023-05-07T13:44:47.635Z,101393.95
2023-05-07T13:46:56.930Z,101394.37
2023-05-07T13:49:05.960Z,101393.76
2023-05-07T13:51:15.124Z,101395.23
2023-05-07T13:53:24.549Z,101398.52
2023-05-07T13:55:34.366Z,101400.88
2023-05-07T13:57:43.316Z,101400.75
2023-05-07T13:59:52.687Z,101405.65
2023-05-07T14:02:01.795Z,101408.52
2023-05-07T14:04:11.133Z,101408.08
2023-05-07T14:06:20.205Z,101408.86
2023-05-07T14:08:31.706Z,101413.61
2023-05-07T14:10:41.348Z,101411.80
2023-05-07T14:12:50.848Z,101412.16
2023-05-07T14:15:00.225Z,101411.13
2023-05-07T14:17:09.717Z,101412.17
2023-05-07T14:19:18.919Z,101414.05
2023-05-07T14:21:29.138Z,101416.73
2023-05-07T14:23:38.653Z,101418.61
2023-05-07T14:25:48.947Z,101418.98
2023-05-07T14:27:58.462Z,101422.63
2023-05-07T14:30:08.284Z,101422.42
2023-05-07T14:32:17.542Z,101427.42
2023-05-07T14:34:26.648Z,101422.96
2023-05-07T14:36:35.874Z,101425.02
2023-05-07T14:38:45.348Z,101423.71
2023-05-07T14:40:57.111Z,101417.83
2023-05-07T14:43:06.238Z,101422.39
2023-05-07T14:45:16.014Z,101421.14
2023-05-07T14:47:25.346Z,101419.75
2023-05-07T14:49:35.080Z,101415.67
2023-05-07T14:51:44.369Z,101418.35
2023-05-07T14:53:53.971Z,101415.36
2023-05-07T14:56:03.115Z,101414.95
2023-05-07T14:58:13.032Z,101421.14
2023-05-07T15:00:23.274Z,101420.27
2023-05-07T15:02:32.695Z,101421.15
2023-05-07T15:04:47.169Z,101417.54
2023-05-07T15:06:57.410Z,101417.68
2023-05-07T15:09:07.333Z,101418.36
2023-05-07T15:11:16.409Z,101415.84
2023-05-07T15:13:25.886Z,101413.94
2023-05-07T15:15:35.103Z,101413.42
2023-05-07T15:17:44.784Z,101408.29
2023-05-07T15:19:55.068Z,101411.81
2023-05-07T15:22:04.675Z,101414.33
2023-05-07T15:24:14.277Z,101413.30
2023-05-07T15:26:24.739Z,101413.24
2023-05-07T15:28:34.124Z,101410.33
2023-05-07T15:30:43.548Z,101409.48
2023-05-07T15:32:54.820Z,101412.19
2023-05-07T15:35:04.040Z,101409.87
2023-05-07T15:37:13.198Z,101418.36
2023-05-07T15:39:24.836Z,101416.27
2023-05-07T15:41:34.392Z,101414.70
2023-05-07T15:43:50.888Z,101417.38
2023-05-07T15:46:01.551Z,101422.63
2023-05-07T15:48:11.068Z,101420.59
2023-05-07T15:50:20.286Z,101428.17
2023-05-07T15:52:29.905Z,101428.90
2023-05-07T15:54:40.748Z,101432.94
2023-05-07T15:56:49.876Z,101433.09
2023-05-07T15:58:59.368Z,101427.70
2023-05-07T16:01:08.778Z,101430.00
2023-05-07T16:03:19.255Z,101428.42
2023-05-07T16:05:28.693Z,101428.48
2023-05-07T16:07:37.893Z,101427.86
2023-05-07T16:09:47.706Z,101430.15
2023-05-07T16:11:56.920Z,101431.02
2023-05-07T16:14:06.085Z,101431.80
2023-05-07T16:16:15.343Z,101433.00
2023-05-07T16:18:24.689Z,101433.34
2023-05-07T16:20:34.159Z,101433.02
2023-05-07T16:22:43.391Z,101427.70
2023-05-07T16:24:52.517Z,101429.39
2023-05-07T16:27:01.854Z,101425.27
2023-05-07T16:29:11.468Z,101426.48
2023-05-07T16:31:20.678Z,101427.27
2023-05-07T16:33:30.101Z,101424.48
2023-05-07T16:35:39.288Z,101425.26
2023-05-07T16:37:48.558Z,101419.91
2023-05-07T16:40:00.049Z,101416.46
2023-05-07T16:42:09.829Z,101419.31
2023-05-07T16:44:19.089Z,101419.73
2023-05-07T16:46:28.585Z,101417.30
2023-05-07T16:48:37.724Z,101420.64
2023-05-07T16:50:46.996Z,101420.08
2023-05-07T16:52:56.246Z,101422.96
2023-05-07T16:55:05.426Z,101420.88
2023-05-07T16:57:14.524Z,101419.78
2023-05-07T16:59:24.074Z,101422.98
2023-05-07T17:01:33.655Z,101420.98
2023-05-07T17:03:42.969Z,101419.65
2023-05-07T17:05:52.251Z,101419.80
2023-05-07T17:08:01.751Z,101420.77
2023-05-07T17:10:12.893Z,101419.44
2023-05-07T17:12:22.041Z,101417.48
2023-05-07T17:14:31.516Z,101415.09
2023-05-07T17:16:40.942Z,101422.77
2023-05-07T17:18:50.035Z,101420.23
2023-05-07T17:20:59.361Z,101414.38
2023-05-07T17:23:08.590Z,101418.38
2023-05-07T17:25:17.847Z,101418.14
2023-05-07T17:27:27.145Z,101418.44
2023-05-07T17:29:36.119Z,101423.61
2023-05-07T17:31:45.315Z,101421.77
2023-05-07T17:33:54.467Z,101420.30
2023-05-07T17:36:04.616Z,101418.50
2023-05-07T17:38:14.071Z,101419.66
2023-05-07T17:40:24.328Z,101418.33
2023-05-07T17:42:33.564Z,101419.80
2023-05-07T17:44:42.628Z,101422.63
2023-05-07T17:46:51.697Z,101426.10
2023-05-07T17:49:00.910Z,101427.98
2023-05-07T17:51:10.028Z,101427.70
2023-05-07T17:53:19.316Z,101426.53
2023-05-07T17:55:28.775Z,101424.02
2023-05-07T17:57:38.091Z,101425.45
2023-05-07T17:59:47.176Z,101427.42
2023-05-07T18:01:56.644Z,101424.55
2023-05-07T18:04:06.501Z,101429.11
2023-05-07T18:06:19.287Z,101429.08
2023-05-07T18:08:28.659Z,101431.58
2023-05-07T18:10:37.192Z,101427.21
2023-05-07T18:12:46.366Z,101423.70
2023-05-07T18:14:55.626Z,101425.09
2023-05-07T18:17:04.905Z,101426.94
2023-05-07T18:19:14.284Z,101424.53
2023-05-07T18:21:23.454Z,101421.77
2023-05-07T18:23:34.140Z,101428.29
2023-05-07T18:25:43.392Z,101428.82
2023-05-07T18:27:52.501Z,101424.77
2023-05-07T18:30:01.611Z,101423.52
2023-05-07T18:32:11.176Z,101420.77
2023-05-07T18:34:20.428Z,101420.98
2023-05-07T18:36:29.858Z,101417.64
2023-05-07T18:38:39.223Z,101414.20
2023-05-07T18:40:48.921Z,101419.96
2023-05-07T18:42:58.424Z,101418.12
2023-05-07T18:45:08.468Z,101420.49
2023-05-07T18:47:17.751Z,101419.77
2023-05-07T18:49:26.788Z,101420.09
2023-05-07T18:51:36.127Z,101417.77
2023-05-07T18:53:45.305Z,101422.09
2023-05-07T18:55:55.064Z,101423.19
2023-05-07T18:58:04.218Z,101423.41
2023-05-07T19:00:15.515Z,101420.13
2023-05-07T19:02:25.088Z,101420.91
2023-05-07T19:04:34.760Z,101419.70
2023-05-07T19:06:43.934Z,101420.20
2023-05-07T19:08:53.496Z,101418.44
2023-05-07T19:11:03.784Z,101417.09
2023-05-07T19:13:13.168Z,101417.77
2023-05-07T19:15:23.679Z,101409.86
2023-05-07T19:17:33.062Z,101415.71
2023-05-07T19:19:42.281Z,101415.96
2023-05-07T19:21:51.680Z,101417.16
2023-05-07T19:24:01.281Z,101413.48
2023-05-07T19:26:10.854Z,101416.91
2023-05-07T19:28:20.202Z,101415.73
2023-05-07T19:30:29.860Z,101416.42
2023-05-07T19:32:39.170Z,101411.79
2023-05-07T19:34:48.429Z,101409.25
2023-05-07T19:36:57.577Z,101407.48
2023-05-07T19:39:07.182Z,101407.19
2023-05-07T19:41:16.812Z,101405.99
2023-05-07T19:43:26.027Z,101405.92
2023-05-07T19:45:35.548Z,101403.30
2023-05-07T19:47:44.912Z,101404.63
2023-05-07T19:49:54.094Z,101400.32
2023-05-07T19:52:03.573Z,101398.47
2023-05-07T19:54:12.774Z,101395.41
2023-05-07T19:56:22.676Z,101396.61
2023-05-07T19:58:32.240Z,101393.23
2023-05-07T20:00:43.171Z,101395.38
2023-05-07T20:02:52.629Z,101393.21
2023-05-07T20:05:02.217Z,101391.89
2023-05-07T20:07:11.412Z,101387.66
2023-05-07T20:09:20.490Z,101385.71
2023-05-07T20:11:30.463Z,101388.15
2023-05-07T20:13:39.736Z,101384.05
2023-05-07T20:15:49.065Z,101384.76
2023-05-07T20:17:58.339Z,101382.91
2023-05-07T20:20:09.790Z,101381.88
2023-05-07T20:22:19.090Z,101381.24
2023-05-07T20:24:28.393Z,101383.48
2023-05-07T20:26:37.127Z,101382.52
2023-05-07T20:28:46.797Z,101386.30
2023-05-07T20:30:56.044Z,101382.15
2023-05-07T20:33:05.790Z,101384.09
2023-05-07T20:35:15.581Z,101381.27
2023-05-07T20:37:25.683Z,101384.45
2023-05-07T20:39:35.173Z,101388.69
2023-05-07T20:41:45.273Z,101390.89
2023-05-07T20:43:54.545Z,101389.94
2023-05-07T20:46:08.031Z,101388.11
2023-05-07T20:48:17.405Z,101391.98
2023-05-07T20:50:28.305Z,101389.13
2023-05-07T20:52:37.728Z,101392.21
2023-05-07T20:54:47.746Z,101389.39
2023-05-07T20:56:58.251Z,101390.56
2023-05-07T20:59:07.664Z,101388.58
2023-05-07T21:01:16.830Z,101387.34
2023-05-07T21:03:26.301Z,101384.95
2023-05-07T21:05:35.843Z,101382.91
2023-05-07T21:07:45.017Z,101383.89
2023-05-07T21:09:54.211Z,101381.42
2023-05-07T21:12:04.477Z,101373.61
2023-05-07T21:14:13.694Z,101373.60
2023-05-07T21:16:23.229Z,101373.16
2023-05-07T21:18:32.553Z,101367.77
2023-05-07T21:20:41.914Z,101365.70
2023-05-07T21:22:50.996Z,101364.89
2023-05-07T21:25:00.162Z,101358.15
2023-05-07T21:27:09.646Z,101353.64
2023-05-07T21:29:18.830Z,101351.46
2023-05-07T21:31:28.420Z,101349.94
2023-05-07T21:33:38.470Z,101347.54
2023-05-07T21:35:47.693Z,101346.95
2023-05-07T21:37:56.828Z,101344.73
2023-05-07T21:40:06.372Z,101342.40
2023-05-07T21:42:15.869Z,101344.05
2023-05-07T21:44:25.238Z,101339.79
2023-05-07T21:46:35.034Z,101334.45
2023-05-07T21:48:44.261Z,101334.27
2023-05-07T21:51:03.781Z,101329.63
2023-05-07T21:53:12.960Z,101330.29
2023-05-07T21:55:22.798Z,101326.75
2023-05-07T21:57:32.002Z,101325.09
2023-05-07T21:59:41.155Z,101324.86
2023-05-07T22:01:50.203Z,101322.41
2023-05-07T22:03:59.511Z,101318.82
2023-05-07T22:06:09.617Z,101313.95
2023-05-07T22:08:18.874Z,101312.27
2023-05-07T22:10:28.305Z,101308.67
2023-05-07T22:12:37.964Z,101309.76
2023-05-07T22:14:47.624Z,101305.45
2023-05-07T22:16:56.817Z,101304.88
2023-05-07T22:19:06.708Z,101303.84
2023-05-07T22:21:15.960Z,101293.21
2023-05-07T22:23:25.121Z,101295.38
2023-05-07T22:25:36.661Z,101295.23
2023-05-07T22:27:46.706Z,101279.96
2023-05-07T22:29:57.457Z,101281.55
2023-05-07T22:32:07.145Z,101282.63
2023-05-07T22:34:16.365Z,101281.49
2023-05-07T22:36:25.534Z,101277.11
2023-05-07T22:38:35.228Z,101273.83
2023-05-07T22:40:44.615Z,101275.19
2023-05-07T22:42:54.073Z,101276.91
2023-05-07T22:45:03.699Z,101272.52
2023-05-07T22:47:12.819Z,101274.04
2023-05-07T22:49:22.021Z,101268.27
2023-05-07T22:51:31.137Z,101266.20
2023-05-07T22:53:40.498Z,101261.91
2023-05-07T22:55:49.686Z,101258.50
2023-05-07T22:57:58.997Z,101255.64
2023-05-07T23:00:10.242Z,101253.81
2023-05-07T23:02:19.633Z,101253.23
2023-05-07T23:04:28.814Z,101248.23
2023-05-07T23:06:38.160Z,101250.46
2023-05-07T23:08:47.464Z,101248.95
2023-05-07T23:10:56.576Z,101247.52
2023-05-07T23:13:06.708Z,101247.92
2023-05-07T23:15:16.836Z,101243.43
2023-05-07T23:17:26.112Z,101232.25
2023-05-07T23:19:36.147Z,101229.73
2023-05-07T23:21:45.335Z,101227.27
2023-05-07T23:23:54.507Z,101225.41
2023-05-07T23:26:03.759Z,101222.26
2023-05-07T23:28:12.878Z,101222.55
2023-05-07T23:30:22.320Z,101219.52
2023-05-07T23:32:32.262Z,101221.83
2023-05-07T23:34:41.690Z,101215.16
2023-05-07T23:36:51.124Z,101217.36
2023-05-07T23:39:00.293Z,101210.74
2023-05-07T23:41:09.744Z,101210.67
2023-05-07T23:43:20.116Z,101211.26
2023-05-07T23:45:29.268Z,101211.93
2023-05-07T23:47:41.418Z,101207.05
2023-05-07T23:49:50.686Z,101206.09
2023-05-07T23:51:59.905Z,101203.70
2023-05-07T23:54:09.378Z,101200.89
2023-05-07T23:56:18.882Z,101200.73
2023-05-07T23:58:28.156Z,101194.66
